Time;durP1;ratioP1;P1;durP2;ratioP2;P2;SDS_P1;SDS_P2;PMS_P1;PMS_P2;Temp;Humidity;BMP_temperature;BMP_pressure;BME280_temperature;BME280_humidity;BME280_pressure;Samples;Min_cycle;Max_cycle;Signal;HPM_P1;HPM_P2
2024/04/10 00:01:40;;;;;;;5.35;1.20;;;;;;;;;;5372606;26;20014;-81
2024/04/10 00:04:06;;;;;;;4.88;1.38;;;;;;;;;;5296253;26;20005;-83
2024/04/10 00:06:31;;;;;;;6.93;1.70;;;;;;;;;;5350729;26;19997;-82
2024/04/10 00:08:57;;;;;;;7.97;1.50;;;;;;;;;;5327737;26;20074;-81
2024/04/10 00:11:25;;;;;;;5.93;2.00;;;;;;;;;;5326314;26;20000;-83
2024/04/10 00:13:50;;;;;;;8.77;1.60;;;;;;;;;;5383607;26;20398;-84
2024/04/10 00:16:16;;;;;;;3.75;1.20;;;;;;;;;;5383176;26;20009;-83
2024/04/10 00:18:43;;;;;;;6.43;2.15;;;;;;;;;;5385203;26;20462;-82
2024/04/10 00:21:08;;;;;;;5.18;1.30;;;;;;;;;;5350650;26;20325;-82
2024/04/10 00:23:34;;;;;;;5.32;1.65;;;;;;;;;;5348639;26;20012;-83
2024/04/10 00:26:00;;;;;;;4.45;1.25;;;;;;;;;;5321049;26;20052;-81
2024/04/10 00:28:28;;;;;;;5.47;1.27;;;;;;;;;;5321090;26;20005;-83
2024/04/10 00:30:53;;;;;;;3.90;1.52;;;;;;;;;;5321148;26;20037;-82
2024/04/10 00:33:20;;;;;;;6.47;1.48;;;;;;;;;;5350156;26;20015;-83
2024/04/10 00:35:57;;;;;;;3.67;1.33;;;;;;;;;;5349432;26;20016;-82
2024/04/10 00:38:23;;;;;;;3.00;1.30;;;;;;;;;;5354795;26;20036;-82
2024/04/10 00:40:58;;;;;;;5.15;1.42;;;;;;;;;;5297306;26;20019;-85
2024/04/10 00:43:24;;;;;;;5.68;1.60;;;;;;;;;;5297274;26;20015;-83
2024/04/10 00:45:56;;;;;;;7.57;1.30;;;;;;;;;;5319719;26;20056;-83
2024/04/10 00:48:24;;;;;;;4.30;1.50;;;;;;;;;;5352572;26;20005;-82
2024/04/10 00:50:54;;;;;;;3.17;1.40;;;;;;;;;;5338136;26;20007;-82
2024/04/10 00:53:22;;;;;;;6.20;1.60;;;;;;;;;;5342421;26;19996;-83
2024/04/10 00:55:50;;;;;;;8.55;1.40;;;;;;;;;;5381340;26;20009;-83
2024/04/10 00:58:18;;;;;;;6.85;1.90;;;;;;;;;;5356457;26;19997;-83
2024/04/10 01:00:44;;;;;;;4.07;1.90;;;;;;;;;;5355488;26;20007;-83
2024/04/10 01:03:10;;;;;;;5.60;1.45;;;;;;;;;;5326550;26;20004;-82
2024/04/10 01:05:35;;;;;;;6.00;1.55;;;;;;;;;;5383967;26;20000;-83
2024/04/10 01:08:02;;;;;;;4.53;1.30;;;;;;;;;;5325254;26;20451;-82
2024/04/10 01:10:28;;;;;;;6.93;1.55;;;;;;;;;;5354986;26;19992;-84
2024/04/10 01:12:54;;;;;;;5.57;1.50;;;;;;;;;;5383837;26;20414;-83
2024/04/10 01:15:20;;;;;;;4.47;1.30;;;;;;;;;;5326649;26;19996;-82
2024/04/10 01:17:45;;;;;;;4.63;1.55;;;;;;;;;;5354795;26;20018;-82
2024/04/10 01:20:11;;;;;;;8.68;1.80;;;;;;;;;;5327269;26;20424;-82
2024/04/10 01:22:36;;;;;;;10.57;1.70;;;;;;;;;;5326519;26;20003;-82
2024/04/10 01:25:05;;;;;;;8.77;2.63;;;;;;;;;;5356517;26;20006;-83
2024/04/10 01:27:36;;;;;;;7.13;1.98;;;;;;;;;;5327408;26;20008;-83
2024/04/10 01:30:03;;;;;;;5.38;1.55;;;;;;;;;;5300744;26;20016;-83
2024/04/10 01:32:28;;;;;;;4.63;2.05;;;;;;;;;;5329983;26;20410;-82
2024/04/10 01:34:54;;;;;;;6.07;1.50;;;;;;;;;;5330208;26;20000;-82
2024/04/10 01:37:19;;;;;;;5.00;1.48;;;;;;;;;;5322413;26;20027;-81
2024/04/10 01:39:45;;;;;;;4.07;1.25;;;;;;;;;;5323991;26;20016;-82
2024/04/10 01:42:11;;;;;;;5.30;1.40;;;;;;;;;;5324087;26;20013;-82
2024/04/10 01:44:37;;;;;;;4.03;1.80;;;;;;;;;;5382613;26;19997;-83
2024/04/10 01:47:04;;;;;;;5.95;1.50;;;;;;;;;;5354658;26;20332;-83
2024/04/10 01:49:31;;;;;;;4.03;1.60;;;;;;;;;;5325221;26;20042;-83
2024/04/10 01:51:56;;;;;;;3.88;1.30;;;;;;;;;;5324016;26;20007;-82
2024/04/10 01:54:22;;;;;;;7.80;2.00;;;;;;;;;;5298033;26;20001;-83
2024/04/10 01:56:48;;;;;;;6.47;2.47;;;;;;;;;;5358683;26;20004;-83
2024/04/10 01:59:14;;;;;;;6.25;1.52;;;;;;;;;;5359211;26;20003;-83
2024/04/10 02:01:39;;;;;;;2.83;1.20;;;;;;;;;;5330204;26;20000;-83
2024/04/10 02:04:05;;;;;;;6.13;1.90;;;;;;;;;;5329305;26;20016;-82
2024/04/10 02:06:30;;;;;;;4.25;1.40;;;;;;;;;;5330997;26;20028;-82
2024/04/10 02:08:56;;;;;;;7.35;1.60;;;;;;;;;;5330546;26;20004;-83
2024/04/10 02:11:26;;;;;;;8.00;1.67;;;;;;;;;;5388384;26;20312;-83
2024/04/10 02:13:51;;;;;;;4.53;1.17;;;;;;;;;;5331535;26;19996;-82
2024/04/10 02:16:18;;;;;;;5.30;1.30;;;;;;;;;;5392914;26;20015;-83
2024/04/10 02:18:43;;;;;;;5.63;1.35;;;;;;;;;;5304329;26;20048;-82
2024/04/10 02:21:09;;;;;;;6.90;2.17;;;;;;;;;;5361787;26;20004;-82
2024/04/10 02:23:35;;;;;;;4.70;1.40;;;;;;;;;;5376258;21;20019;-78
2024/04/10 02:26:10;;;;;;;7.32;1.95;;;;;;;;;;5312095;26;20018;-77
2024/04/10 02:28:36;;;;;;;8.38;1.40;;;;;;;;;;5341682;26;20013;-79
2024/04/10 02:31:02;;;;;;;4.57;1.30;;;;;;;;;;5328430;26;20022;-79
2024/04/10 02:33:27;;;;;;;6.03;1.65;;;;;;;;;;5284494;27;20005;-79
2024/04/10 02:35:53;;;;;;;4.80;1.67;;;;;;;;;;5256512;27;20015;-78
2024/04/10 02:38:19;;;;;;;4.47;1.40;;;;;;;;;;5340298;26;20021;-80
2024/04/10 02:40:44;;;;;;;7.93;1.60;;;;;;;;;;5347471;26;20367;-78
2024/04/10 02:43:10;;;;;;;4.47;1.50;;;;;;;;;;5291288;26;20019;-79
2024/04/10 02:45:35;;;;;;;7.95;1.30;;;;;;;;;;5319573;26;20017;-79
2024/04/10 02:48:01;;;;;;;5.97;1.35;;;;;;;;;;5308243;27;20021;-79
2024/04/10 02:50:27;;;;;;;4.97;1.30;;;;;;;;;;5326995;26;20063;-78
2024/04/10 02:52:53;;;;;;;7.35;1.50;;;;;;;;;;5328264;26;20009;-79
2024/04/10 02:55:18;;;;;;;4.85;2.03;;;;;;;;;;5311131;26;20487;-77
2024/04/10 02:57:44;;;;;;;8.15;1.35;;;;;;;;;;5362304;26;20020;-78
2024/04/10 03:00:11;;;;;;;5.53;1.30;;;;;;;;;;5351763;26;20020;-80
2024/04/10 03:02:37;;;;;;;4.43;1.40;;;;;;;;;;5292234;26;20005;-80
2024/04/10 03:05:04;;;;;;;6.57;1.45;;;;;;;;;;5347897;26;20016;-78
2024/04/10 03:07:29;;;;;;;3.55;1.23;;;;;;;;;;5290232;26;20009;-80
2024/04/10 03:09:55;;;;;;;4.82;1.27;;;;;;;;;;5348169;26;20071;-80
2024/04/10 03:12:21;;;;;;;6.63;1.20;;;;;;;;;;5348267;26;20005;-80
2024/04/10 03:14:46;;;;;;;5.78;1.33;;;;;;;;;;5290964;26;20479;-79
2024/04/10 03:17:13;;;;;;;4.22;1.02;;;;;;;;;;5348289;26;20020;-79
2024/04/10 03:19:38;;;;;;;5.07;1.48;;;;;;;;;;5348145;26;20016;-79
2024/04/10 03:22:04;;;;;;;8.95;2.28;;;;;;;;;;5319740;26;20460;-79
2024/04/10 03:24:29;;;;;;;8.90;1.45;;;;;;;;;;5348290;26;20013;-79
2024/04/10 03:26:55;;;;;;;6.55;1.55;;;;;;;;;;5348160;26;20024;-81
2024/04/10 03:29:20;;;;;;;6.93;1.23;;;;;;;;;;5348065;26;20601;-78
2024/04/10 03:31:46;;;;;;;2.67;1.02;;;;;;;;;;5347698;26;20079;-79
2024/04/10 03:34:12;;;;;;;7.13;1.85;;;;;;;;;;5320039;26;20020;-78
2024/04/10 03:36:40;;;;;;;2.38;1.10;;;;;;;;;;5348438;26;20008;-78
2024/04/10 03:39:08;;;;;;;6.07;1.48;;;;;;;;;;5350453;26;20023;-79
2024/04/10 03:41:34;;;;;;;4.78;1.20;;;;;;;;;;5319094;26;20036;-80
2024/04/10 03:44:04;;;;;;;5.57;1.05;;;;;;;;;;5317951;26;20020;-79
2024/04/10 03:46:31;;;;;;;6.03;1.33;;;;;;;;;;5347056;26;20012;-79
2024/04/10 03:48:58;;;;;;;2.97;0.97;;;;;;;;;;5343006;26;20471;-78
2024/04/10 03:51:24;;;;;;;7.85;1.48;;;;;;;;;;5316413;26;20013;-79
2024/04/10 03:53:49;;;;;;;3.83;1.17;;;;;;;;;;5288912;26;20017;-77
2024/04/10 03:56:15;;;;;;;6.07;1.52;;;;;;;;;;5311781;26;20088;-79
2024/04/10 03:58:42;;;;;;;5.60;1.30;;;;;;;;;;5311681;26;20010;-79
2024/04/10 04:01:08;;;;;;;9.13;1.85;;;;;;;;;;5312996;27;20383;-79
2024/04/10 04:03:35;;;;;;;6.88;1.20;;;;;;;;;;5312424;27;20341;-78
2024/04/10 04:06:01;;;;;;;4.65;1.13;;;;;;;;;;5314818;26;20009;-79
2024/04/10 04:08:27;;;;;;;6.45;1.73;;;;;;;;;;5346444;26;20016;-78
2024/04/10 04:10:55;;;;;;;5.88;1.15;;;;;;;;;;5319187;26;20008;-80
2024/04/10 04:13:21;;;;;;;8.48;1.65;;;;;;;;;;5318828;26;20476;-78
2024/04/10 04:15:48;;;;;;;4.05;1.17;;;;;;;;;;5291166;26;20005;-79
2024/04/10 04:18:13;;;;;;;7.95;1.52;;;;;;;;;;5319176;26;20038;-79
2024/04/10 04:20:40;;;;;;;4.97;1.40;;;;;;;;;;5349892;26;20055;-79
2024/04/10 04:23:06;;;;;;;5.40;1.40;;;;;;;;;;5322028;26;20052;-78
2024/04/10 04:25:33;;;;;;;6.25;1.45;;;;;;;;;;5385106;26;20012;-80
2024/04/10 04:27:58;;;;;;;6.80;1.20;;;;;;;;;;5385322;26;20015;-80
2024/04/10 04:30:24;;;;;;;3.58;1.05;;;;;;;;;;5353498;26;20004;-80
2024/04/10 04:32:50;;;;;;;11.55;2.45;;;;;;;;;;5295911;26;20470;-79
2024/04/10 04:35:15;;;;;;;5.50;1.10;;;;;;;;;;5288172;26;20086;-78
2024/04/10 04:37:43;;;;;;;6.15;1.55;;;;;;;;;;5325787;26;20024;-79
2024/04/10 04:40:10;;;;;;;8.25;1.30;;;;;;;;;;5322733;26;20008;-80
2024/04/10 04:42:36;;;;;;;6.07;1.20;;;;;;;;;;5369090;26;20435;-78
2024/04/10 04:45:03;;;;;;;12.68;1.48;;;;;;;;;;5352968;26;20013;-80
2024/04/10 04:47:29;;;;;;;6.60;1.45;;;;;;;;;;5318161;26;20061;-79
2024/04/10 04:49:55;;;;;;;8.55;1.40;;;;;;;;;;5358836;26;20014;-80
2024/04/10 04:52:21;;;;;;;9.02;1.40;;;;;;;;;;5339866;26;20367;-81
2024/04/10 04:54:46;;;;;;;5.78;1.20;;;;;;;;;;5353495;26;20023;-78
2024/04/10 04:57:12;;;;;;;4.88;1.33;;;;;;;;;;5352849;26;20008;-79
2024/04/10 04:59:39;;;;;;;6.13;1.35;;;;;;;;;;5298518;26;20008;-79
2024/04/10 05:02:04;;;;;;;6.85;1.38;;;;;;;;;;5328176;26;20466;-79
2024/04/10 05:07:14;;;;;;;6.93;1.30;;;;;;;;;;5357255;26;20015;-80
2024/04/10 05:09:40;;;;;;;4.47;1.40;;;;;;;;;;5327841;26;20004;-78
2024/04/10 05:12:05;;;;;;;10.02;1.70;;;;;;;;;;5357072;26;20004;-80
2024/04/10 05:14:31;;;;;;;6.03;1.20;;;;;;;;;;5358506;26;20385;-80
2024/04/10 05:16:57;;;;;;;6.60;1.38;;;;;;;;;;5299323;26;20031;-79
2024/04/10 05:19:23;;;;;;;6.90;1.15;;;;;;;;;;5328695;26;20524;-80
2024/04/10 05:21:48;;;;;;;7.07;1.20;;;;;;;;;;5328467;26;20004;-81
2024/04/10 05:24:14;;;;;;;5.50;1.30;;;;;;;;;;5328288;26;20008;-80
2024/04/10 05:26:40;;;;;;;9.93;1.50;;;;;;;;;;5327668;26;20044;-80
2024/04/10 05:29:11;;;;;;;6.20;1.48;;;;;;;;;;5357419;26;20001;-82
2024/04/10 05:31:40;;;;;;;5.82;1.30;;;;;;;;;;5294232;26;20142;-80
2024/04/10 05:34:06;;;;;;;10.88;1.92;;;;;;;;;;5321739;26;20352;-81
2024/04/10 05:36:31;;;;;;;7.30;1.40;;;;;;;;;;5373124;26;20020;-80
2024/04/10 05:38:59;;;;;;;8.90;1.42;;;;;;;;;;5333751;26;20461;-81
2024/04/10 05:41:25;;;;;;;7.45;1.67;;;;;;;;;;5361658;26;20001;-81
2024/04/10 05:43:51;;;;;;;5.88;1.45;;;;;;;;;;5328003;26;20014;-79
2024/04/10 05:46:16;;;;;;;7.10;2.03;;;;;;;;;;5356978;26;20016;-80
2024/04/10 05:48:42;;;;;;;10.25;1.30;;;;;;;;;;5322035;26;20009;-79
2024/04/10 05:51:09;;;;;;;6.03;1.58;;;;;;;;;;5321984;26;20029;-80
2024/04/10 05:53:34;;;;;;;5.65;1.38;;;;;;;;;;5291218;26;20473;-81
2024/04/10 05:56:06;;;;;;;13.07;1.67;;;;;;;;;;5370500;26;20009;-80
2024/04/10 05:58:32;;;;;;;10.57;1.60;;;;;;;;;;5350710;26;20024;-81
2024/04/10 06:01:04;;;;;;;9.85;1.90;;;;;;;;;;5349470;26;20464;-81
2024/04/10 06:03:29;;;;;;;10.57;1.67;;;;;;;;;;5347692;26;20140;-80
2024/04/10 06:05:55;;;;;;;4.53;1.25;;;;;;;;;;5319043;26;20083;-79
2024/04/10 06:08:23;;;;;;;4.00;1.73;;;;;;;;;;5292409;26;20005;-81
2024/04/10 06:10:52;;;;;;;5.35;1.63;;;;;;;;;;5348604;26;20016;-81
2024/04/10 06:13:17;;;;;;;12.00;2.42;;;;;;;;;;5263220;26;20001;-80
2024/04/10 06:15:43;;;;;;;11.02;1.30;;;;;;;;;;5289717;26;20674;-79
2024/04/10 06:18:09;;;;;;;7.13;2.08;;;;;;;;;;5290580;26;20004;-81
2024/04/10 06:20:34;;;;;;;16.65;1.95;;;;;;;;;;5318867;26;20023;-80
2024/04/10 06:23:00;;;;;;;10.48;2.22;;;;;;;;;;5331261;26;20021;-81
2024/04/10 06:25:25;;;;;;;8.05;1.38;;;;;;;;;;5319730;26;20415;-80
2024/04/10 06:27:51;;;;;;;7.82;1.45;;;;;;;;;;5318903;26;20392;-80
2024/04/10 06:30:17;;;;;;;11.13;1.70;;;;;;;;;;5348945;26;20009;-80
2024/04/10 06:32:43;;;;;;;6.82;1.88;;;;;;;;;;5357371;26;20020;-79
2024/04/10 06:35:08;;;;;;;6.10;1.38;;;;;;;;;;5296461;26;20004;-80
2024/04/10 06:37:35;;;;;;;5.05;1.20;;;;;;;;;;5324835;26;20004;-80
2024/04/10 06:40:01;;;;;;;8.95;1.75;;;;;;;;;;5337747;26;20023;-79
2024/04/10 06:42:29;;;;;;;5.72;1.70;;;;;;;;;;5326373;26;20016;-79
2024/04/10 06:44:55;;;;;;;4.00;1.35;;;;;;;;;;5352201;26;20012;-80
2024/04/10 06:47:20;;;;;;;6.32;1.60;;;;;;;;;;5328750;26;20123;-79
2024/04/10 06:49:50;;;;;;;7.90;1.40;;;;;;;;;;5330965;26;20703;-80
2024/04/10 06:52:15;;;;;;;6.75;1.40;;;;;;;;;;5301624;26;20008;-79
2024/04/10 06:54:41;;;;;;;8.95;1.52;;;;;;;;;;5393291;26;20434;-80
2024/04/10 06:57:06;;;;;;;8.75;1.50;;;;;;;;;;5416004;26;20011;-80
2024/04/10 06:59:32;;;;;;;4.47;1.75;;;;;;;;;;5365505;26;20003;-81
2024/04/10 07:01:58;;;;;;;8.55;1.80;;;;;;;;;;5363006;26;20019;-80
2024/04/10 07:04:23;;;;;;;6.93;1.60;;;;;;;;;;5364941;26;20045;-80
2024/04/10 07:06:49;;;;;;;9.02;2.22;;;;;;;;;;5423609;26;20019;-80
2024/04/10 07:09:15;;;;;;;9.23;1.85;;;;;;;;;;5363478;26;20015;-80
2024/04/10 07:11:41;;;;;;;7.28;1.77;;;;;;;;;;5362542;26;20003;-79
2024/04/10 07:14:06;;;;;;;6.57;1.70;;;;;;;;;;5324472;26;20480;-81
2024/04/10 07:16:32;;;;;;;9.63;1.83;;;;;;;;;;5324030;26;20005;-80
2024/04/10 07:18:59;;;;;;;7.03;1.55;;;;;;;;;;5351019;26;20063;-80
2024/04/10 07:21:25;;;;;;;6.72;1.60;;;;;;;;;;5322916;26;20004;-79
2024/04/10 07:23:51;;;;;;;7.80;1.70;;;;;;;;;;5351099;26;20470;-79
2024/04/10 07:26:20;;;;;;;9.38;1.88;;;;;;;;;;5356634;26;20006;-80
2024/04/10 07:28:50;;;;;;;;;;;;;;;;;;5376455;26;20011;-80
2024/04/10 07:31:16;;;;;;;10.07;1.50;;;;;;;;;;5292072;26;19938;-81
2024/04/10 07:33:42;;;;;;;10.48;2.13;;;;;;;;;;5323078;26;20456;-81
2024/04/10 07:36:11;;;;;;;9.98;1.90;;;;;;;;;;5290998;26;20019;-81
2024/04/10 07:38:38;;;;;;;9.07;2.38;;;;;;;;;;5353402;26;20036;-79
2024/04/10 07:41:07;;;;;;;12.60;2.22;;;;;;;;;;5355888;26;20498;-79
2024/04/10 07:43:36;;;;;;;7.40;2.20;;;;;;;;;;5325033;26;20085;-80
2024/04/10 07:46:05;;;;;;;7.45;2.60;;;;;;;;;;5352302;26;20004;-81
2024/04/10 07:48:32;;;;;;;12.77;2.42;;;;;;;;;;5353319;26;20036;-81
2024/04/10 07:50:57;;;;;;;8.00;2.67;;;;;;;;;;5381124;26;20032;-79
2024/04/10 07:53:23;;;;;;;9.15;2.22;;;;;;;;;;5351889;26;20019;-81
2024/04/10 07:55:49;;;;;;;6.35;2.40;;;;;;;;;;5352506;26;20063;-79
2024/04/10 07:58:14;;;;;;;8.23;2.33;;;;;;;;;;5411326;26;20016;-79
2024/04/10 08:00:40;;;;;;;6.78;2.13;;;;;;;;;;5380592;26;20343;-80
2024/04/10 08:03:08;;;;;;;8.88;2.22;;;;;;;;;;5380802;26;20057;-78
2024/04/10 08:05:35;;;;;;;8.85;2.47;;;;;;;;;;5325848;26;20348;-79
2024/04/10 08:08:00;;;;;;;10.82;2.80;;;;;;;;;;5316811;26;20004;-78
2024/04/10 08:10:26;;;;;;;11.77;2.67;;;;;;;;;;5345223;26;20031;-79
2024/04/10 08:12:54;;;;;;;7.85;2.03;;;;;;;;;;5316361;26;20005;-78
2024/04/10 08:15:21;;;;;;;9.20;2.60;;;;;;;;;;5321669;26;20004;-80
2024/04/10 08:17:46;;;;;;;6.35;2.63;;;;;;;;;;5350140;26;20000;-79
2024/04/10 08:20:12;;;;;;;11.82;2.60;;;;;;;;;;5350988;26;20053;-78
2024/04/10 08:22:37;;;;;;;10.95;2.83;;;;;;;;;;5336635;26;20005;-80
2024/04/10 08:25:03;;;;;;;9.15;2.33;;;;;;;;;;5316827;26;20001;-79
2024/04/10 08:27:29;;;;;;;12.50;3.25;;;;;;;;;;5317212;26;19997;-81
2024/04/10 08:29:54;;;;;;;8.35;2.13;;;;;;;;;;5346627;26;20004;-79
2024/04/10 08:32:20;;;;;;;8.88;2.47;;;;;;;;;;5316408;26;19997;-80
2024/04/10 08:34:45;;;;;;;8.23;3.05;;;;;;;;;;5315847;26;20012;-79
2024/04/10 08:37:14;;;;;;;8.38;2.60;;;;;;;;;;5314531;26;20001;-78
2024/04/10 08:39:40;;;;;;;10.77;2.40;;;;;;;;;;5342456;26;20007;-81
2024/04/10 08:42:06;;;;;;;8.57;2.30;;;;;;;;;;5326838;26;20015;-79
2024/04/10 08:44:32;;;;;;;7.15;2.30;;;;;;;;;;5327280;26;20011;-79
2024/04/10 08:46:58;;;;;;;10.43;2.42;;;;;;;;;;5349788;26;20024;-80
2024/04/10 08:49:24;;;;;;;10.38;2.55;;;;;;;;;;5301560;26;20422;-79
2024/04/10 08:51:51;;;;;;;10.63;2.70;;;;;;;;;;5350558;26;20020;-79
2024/04/10 08:54:19;;;;;;;13.10;3.15;;;;;;;;;;5354436;26;20348;-81
2024/04/10 08:56:45;;;;;;;8.17;2.27;;;;;;;;;;5339482;26;20341;-78
2024/04/10 08:59:10;;;;;;;9.40;2.60;;;;;;;;;;5318807;26;20023;-81
2024/04/10 09:01:37;;;;;;;12.13;2.53;;;;;;;;;;5320935;26;20008;-80
2024/04/10 09:04:04;;;;;;;7.78;2.42;;;;;;;;;;5287111;26;20395;-80
2024/04/10 09:06:29;;;;;;;10.98;2.97;;;;;;;;;;5369548;26;20004;-81
2024/04/10 09:08:56;;;;;;;9.30;2.83;;;;;;;;;;5328801;26;20016;-81
2024/04/10 09:11:22;;;;;;;11.13;2.50;;;;;;;;;;5313318;26;20500;-80
2024/04/10 09:14:07;;;;;;;14.85;2.70;;;;;;;;;;5319658;26;20524;-80
2024/04/10 09:16:33;;;;;;;9.45;2.30;;;;;;;;;;5320961;26;20053;-80
2024/04/10 09:19:09;;;;;;;9.15;1.90;;;;;;;;;;5381049;26;20012;-82
2024/04/10 09:21:35;;;;;;;8.00;2.20;;;;;;;;;;5327495;26;20008;-82
2024/04/10 09:24:00;;;;;;;10.32;1.85;;;;;;;;;;5341180;26;20004;-82
2024/04/10 09:26:26;;;;;;;10.82;2.78;;;;;;;;;;5324646;26;20363;-82
2024/04/10 09:29:01;;;;;;;7.50;2.22;;;;;;;;;;5351357;26;20009;-82
2024/04/10 09:31:28;;;;;;;7.55;2.35;;;;;;;;;;5350575;26;20008;-80
2024/04/10 09:33:54;;;;;;;10.43;2.70;;;;;;;;;;5326067;26;20426;-80
2024/04/10 09:36:19;;;;;;;5.90;1.83;;;;;;;;;;5292000;26;20004;-80
2024/04/10 09:38:47;;;;;;;5.15;2.70;;;;;;;;;;5338810;26;20065;-79
2024/04/10 09:41:15;;;;;;;6.40;2.05;;;;;;;;;;5270484;26;20022;-80
2024/04/10 09:43:42;;;;;;;8.70;2.38;;;;;;;;;;5336643;26;20048;-82
2024/04/10 09:46:09;;;;;;;8.77;2.20;;;;;;;;;;5295055;26;20023;-83
2024/04/10 09:48:34;;;;;;;6.22;2.05;;;;;;;;;;5329361;26;20347;-82
2024/04/10 09:51:04;;;;;;;7.40;2.60;;;;;;;;;;5325911;26;20044;-81
2024/04/10 09:53:33;;;;;;;7.55;2.15;;;;;;;;;;5348962;26;20004;-82
2024/04/10 09:56:01;;;;;;;6.90;2.25;;;;;;;;;;5297546;26;20027;-82
2024/04/10 09:58:27;;;;;;;10.85;2.72;;;;;;;;;;5316045;26;20089;-82
2024/04/10 10:00:53;;;;;;;12.38;3.08;;;;;;;;;;5342516;26;20480;-82
2024/04/10 10:03:25;;;;;;;6.50;2.33;;;;;;;;;;5290366;26;20009;-81
2024/04/10 10:06:01;;;;;;;11.68;2.17;;;;;;;;;;5324739;26;20921;-81
2024/04/10 10:08:47;;;;;;;8.93;2.78;;;;;;;;;;5352763;26;20001;-83
2024/04/10 10:11:17;;;;;;;7.95;2.63;;;;;;;;;;5324540;26;20012;-81
2024/04/10 10:13:44;;;;;;;10.38;2.50;;;;;;;;;;5343552;26;20108;-82
2024/04/10 10:16:11;;;;;;;8.85;2.58;;;;;;;;;;5297246;26;20410;-82
2024/04/10 10:18:37;;;;;;;8.60;2.20;;;;;;;;;;5296650;26;20473;-80
2024/04/10 10:21:09;;;;;;;6.03;2.22;;;;;;;;;;5323583;26;20417;-81
2024/04/10 10:23:36;;;;;;;8.70;2.20;;;;;;;;;;5327601;26;20004;-80
2024/04/10 10:26:03;;;;;;;;;;;;;;;;;;5295233;26;20008;-82
2024/04/10 10:28:35;;;;;;;11.05;2.55;;;;;;;;;;5352151;26;20272;-81
2024/04/10 10:31:05;;;;;;;7.80;2.63;;;;;;;;;;5338109;26;20363;-81
2024/04/10 10:33:31;;;;;;;10.77;2.30;;;;;;;;;;5345625;26;20495;-82
2024/04/10 10:35:56;;;;;;;7.10;2.08;;;;;;;;;;5317204;26;20019;-81
2024/04/10 10:38:22;;;;;;;9.55;2.42;;;;;;;;;;5355125;26;20016;-80
2024/04/10 10:40:47;;;;;;;6.88;2.85;;;;;;;;;;5295647;26;20019;-82
2024/04/10 10:43:13;;;;;;;8.75;2.53;;;;;;;;;;5330296;26;20005;-82
2024/04/10 10:45:39;;;;;;;9.77;2.38;;;;;;;;;;5335952;26;20004;-82
2024/04/10 10:48:06;;;;;;;6.38;2.13;;;;;;;;;;5328924;26;20001;-82
2024/04/10 10:50:31;;;;;;;8.93;2.33;;;;;;;;;;5319841;26;20009;-82
2024/04/10 10:52:57;;;;;;;6.88;2.10;;;;;;;;;;5338807;26;20021;-81
2024/04/10 10:55:24;;;;;;;10.95;3.30;;;;;;;;;;5324545;26;20001;-80
2024/04/10 10:58:16;;;;;;;9.95;2.65;;;;;;;;;;5330080;26;20023;-80
2024/04/10 11:00:41;;;;;;;6.15;2.42;;;;;;;;;;5352904;26;20033;-83
2024/04/10 11:03:07;;;;;;;15.05;3.17;;;;;;;;;;5309250;26;20012;-80
2024/04/10 11:05:33;;;;;;;7.05;2.13;;;;;;;;;;5330526;26;20007;-80
2024/04/10 11:07:59;;;;;;;9.65;2.60;;;;;;;;;;5317982;26;20008;-82
2024/04/10 11:10:25;;;;;;;10.15;2.55;;;;;;;;;;5293444;26;20054;-81
2024/04/10 11:13:17;;;;;;;6.65;2.45;;;;;;;;;;5349079;26;20013;-80
2024/04/10 11:15:45;;;;;;;7.80;2.20;;;;;;;;;;5315524;26;20056;-81
2024/04/10 11:18:18;;;;;;;8.23;2.30;;;;;;;;;;5319081;26;20020;-81
2024/04/10 11:20:44;;;;;;;8.07;2.55;;;;;;;;;;5294333;26;20013;-81
2024/04/10 11:23:10;;;;;;;8.65;2.60;;;;;;;;;;5352317;26;20018;-82
2024/04/10 11:25:35;;;;;;;9.35;2.53;;;;;;;;;;5323467;26;20008;-81
2024/04/10 11:28:01;;;;;;;9.05;2.38;;;;;;;;;;5322178;26;20471;-81
2024/04/10 11:30:27;;;;;;;11.63;2.72;;;;;;;;;;5316081;26;20458;-82
2024/04/10 11:32:53;;;;;;;11.50;2.63;;;;;;;;;;5373850;26;20036;-81
2024/04/10 11:35:19;;;;;;;11.45;2.47;;;;;;;;;;5354805;26;20012;-81
2024/04/10 11:37:48;;;;;;;8.13;2.40;;;;;;;;;;5322428;26;20058;-83
2024/04/10 11:40:14;;;;;;;8.30;2.45;;;;;;;;;;5370647;26;20019;-82
2024/04/10 11:42:40;;;;;;;14.18;3.80;;;;;;;;;;5291701;26;20478;-82
2024/04/10 11:45:07;;;;;;;6.97;2.53;;;;;;;;;;5297344;26;20388;-82
2024/04/10 11:47:34;;;;;;;9.25;2.88;;;;;;;;;;5326327;26;20008;-83
2024/04/10 11:49:59;;;;;;;7.47;2.33;;;;;;;;;;5326151;26;20008;-81
2024/04/10 11:52:25;;;;;;;8.55;2.40;;;;;;;;;;5340954;26;20019;-81
2024/04/10 11:54:52;;;;;;;12.90;2.35;;;;;;;;;;5377059;26;20008;-83
2024/04/10 11:57:18;;;;;;;8.70;2.67;;;;;;;;;;5325551;26;20019;-82
2024/04/10 11:59:46;;;;;;;12.88;3.47;;;;;;;;;;5382244;26;20004;-79
2024/04/10 12:02:12;;;;;;;9.55;2.38;;;;;;;;;;5295433;26;20058;-80
2024/04/10 12:04:38;;;;;;;9.07;3.10;;;;;;;;;;5351019;26;20004;-81
2024/04/10 12:07:05;;;;;;;6.65;2.55;;;;;;;;;;5342923;26;20032;-82
2024/04/10 12:09:31;;;;;;;7.78;2.20;;;;;;;;;;5328697;26;20023;-81
2024/04/10 12:11:56;;;;;;;16.23;2.72;;;;;;;;;;5353967;26;20004;-82
2024/04/10 12:14:22;;;;;;;7.35;2.60;;;;;;;;;;5328997;26;20421;-81
2024/04/10 12:16:48;;;;;;;12.75;2.47;;;;;;;;;;5359735;26;20000;-82
2024/04/10 12:19:14;;;;;;;9.07;2.28;;;;;;;;;;5358435;26;20015;-82
2024/04/10 12:21:41;;;;;;;8.90;2.20;;;;;;;;;;5317969;26;20436;-82
2024/04/10 12:24:07;;;;;;;8.73;2.33;;;;;;;;;;5318888;26;20058;-81
2024/04/10 12:26:34;;;;;;;8.95;2.58;;;;;;;;;;5353441;26;20008;-81
2024/04/10 12:29:00;;;;;;;8.40;2.33;;;;;;;;;;5303286;26;20008;-83
2024/04/10 12:31:26;;;;;;;6.30;1.90;;;;;;;;;;5314378;26;20004;-80
2024/04/10 12:38:26;;;;;;;6.50;2.75;;;;;;;;;;5312011;26;20008;-82
2024/04/10 12:40:52;;;;;;;7.25;2.25;;;;;;;;;;5317994;26;20063;-81
2024/04/10 12:43:18;;;;;;;10.48;2.58;;;;;;;;;;5355728;26;20037;-83
2024/04/10 12:45:44;;;;;;;4.43;1.80;;;;;;;;;;5345703;26;20016;-82
2024/04/10 12:48:12;;;;;;;10.05;1.98;;;;;;;;;;5315693;26;20070;-84
2024/04/10 12:50:39;;;;;;;7.10;2.33;;;;;;;;;;5352193;26;20078;-82
2024/04/10 12:53:04;;;;;;;6.03;2.03;;;;;;;;;;5343620;26;20267;-82
2024/04/10 12:55:30;;;;;;;7.78;1.90;;;;;;;;;;5320544;26;20487;-83
2024/04/10 12:57:56;;;;;;;7.22;2.13;;;;;;;;;;5347074;26;20008;-81
2024/04/10 13:00:22;;;;;;;8.30;2.13;;;;;;;;;;5341476;26;20005;-81
2024/04/10 13:02:47;;;;;;;6.82;2.00;;;;;;;;;;5345345;26;20424;-81
2024/04/10 13:05:14;;;;;;;7.38;2.20;;;;;;;;;;5375750;26;20009;-82
2024/04/10 13:07:41;;;;;;;5.47;2.00;;;;;;;;;;5388163;26;20012;-83
2024/04/10 13:10:11;;;;;;;6.68;1.88;;;;;;;;;;5367139;26;20024;-82
2024/04/10 13:12:36;;;;;;;10.70;2.38;;;;;;;;;;5351633;26;20006;-82
2024/04/10 13:15:02;;;;;;;6.38;1.85;;;;;;;;;;5381261;26;20019;-82
2024/04/10 13:17:28;;;;;;;7.38;2.17;;;;;;;;;;5308401;26;20009;-82
2024/04/10 13:19:54;;;;;;;6.35;1.80;;;;;;;;;;5310057;26;20013;-83
2024/04/10 13:22:20;;;;;;;5.00;1.95;;;;;;;;;;5318718;26;20077;-82
2024/04/10 13:24:45;;;;;;;4.22;1.70;;;;;;;;;;5314255;26;20024;-82
2024/04/10 13:27:13;;;;;;;8.43;1.60;;;;;;;;;;5341385;26;20369;-81
2024/04/10 13:29:39;;;;;;;8.95;2.05;;;;;;;;;;5343163;26;20008;-83
2024/04/10 13:32:05;;;;;;;9.27;2.47;;;;;;;;;;5314356;26;20102;-81
2024/04/10 13:34:31;;;;;;;6.70;1.80;;;;;;;;;;5341615;26;20020;-82
2024/04/10 13:36:57;;;;;;;7.30;2.25;;;;;;;;;;5312872;26;20000;-83
2024/04/10 13:39:23;;;;;;;7.00;2.00;;;;;;;;;;5369113;26;20016;-83
2024/04/10 13:41:48;;;;;;;5.57;2.00;;;;;;;;;;5306995;26;20021;-82
2024/04/10 13:44:14;;;;;;;7.80;2.00;;;;;;;;;;5341132;26;20001;-83
2024/04/10 13:46:40;;;;;;;6.13;1.70;;;;;;;;;;5326777;26;20025;-82
2024/04/10 13:49:06;;;;;;;9.75;2.13;;;;;;;;;;5321423;26;20019;-82
2024/04/10 13:51:32;;;;;;;8.60;2.30;;;;;;;;;;5320139;26;20001;-83
2024/04/10 13:53:58;;;;;;;11.52;2.70;;;;;;;;;;5296127;26;20094;-80
2024/04/10 13:56:24;;;;;;;7.32;2.15;;;;;;;;;;5328170;26;20012;-81
2024/04/10 13:58:50;;;;;;;11.65;2.50;;;;;;;;;;5296740;26;20526;-81
2024/04/10 14:01:17;;;;;;;7.75;2.40;;;;;;;;;;5315689;26;20050;-81
2024/04/10 14:03:44;;;;;;;7.78;2.33;;;;;;;;;;5318453;26;20024;-79
2024/04/10 14:06:10;;;;;;;9.20;3.40;;;;;;;;;;5290550;26;20009;-82
2024/04/10 14:08:38;;;;;;;6.63;2.03;;;;;;;;;;5317641;26;20016;-80
2024/04/10 14:11:04;;;;;;;5.65;2.10;;;;;;;;;;5314086;26;20130;-81
2024/04/10 14:13:31;;;;;;;9.80;2.67;;;;;;;;;;5319073;26;20333;-82
2024/04/10 14:15:57;;;;;;;7.00;2.28;;;;;;;;;;5319288;26;20023;-82
2024/04/10 14:18:23;;;;;;;6.85;2.10;;;;;;;;;;5286368;27;20006;-82
2024/04/10 14:20:59;;;;;;;6.55;2.33;;;;;;;;;;5319237;26;20028;-81
2024/04/10 14:23:25;;;;;;;105.78;52.15;;;;;;;;;;5305627;26;20005;-84
2024/04/10 14:25:52;;;;;;;13.07;6.13;;;;;;;;;;5358342;26;20080;-83
2024/04/10 14:28:19;;;;;;;10.93;4.63;;;;;;;;;;5333993;26;20100;-84
2024/04/10 14:31:05;;;;;;;10.63;4.30;;;;;;;;;;5351821;26;20010;-85
2024/04/10 14:33:36;;;;;;;8.30;2.67;;;;;;;;;;5340899;26;20005;-84
2024/04/10 14:36:02;;;;;;;7.10;2.38;;;;;;;;;;5352081;26;20009;-84
2024/04/10 14:38:28;;;;;;;10.90;2.70;;;;;;;;;;5296085;26;20005;-84
2024/04/10 14:40:58;;;;;;;6.30;2.33;;;;;;;;;;5355490;26;20471;-83
2024/04/10 14:43:24;;;;;;;6.03;1.90;;;;;;;;;;5303093;26;20009;-83
2024/04/10 14:45:53;;;;;;;6.13;2.35;;;;;;;;;;5353921;26;20004;-82